sensor_id;sensor_type;location;lat;lon;timestamp;P1;durP1;ratioP1;P2;durP2;ratioP2
72439;SDS011;60446;50.752;4.352;2023-03-23T00:00:09;9.23;;;2.70;;
72439;SDS011;60446;50.752;4.352;2023-03-23T00:02:38;8.80;;;2.33;;
72439;SDS011;60446;50.752;4.352;2023-03-23T00:05:05;7.95;;;2.58;;
72439;SDS011;60446;50.752;4.352;2023-03-23T00:07:32;8.80;;;3.08;;
72439;SDS011;60446;50.752;4.352;2023-03-23T00:10:00;8.45;;;2.92;;
72439;SDS011;60446;50.752;4.352;2023-03-23T00:12:28;9.80;;;3.10;;
72439;SDS011;60446;50.752;4.352;2023-03-23T00:15:00;7.53;;;2.63;;
72439;SDS011;60446;50.752;4.352;2023-03-23T00:17:31;9.40;;;2.40;;
72439;SDS011;60446;50.752;4.352;2023-03-23T00:20:03;8.13;;;3.05;;
72439;SDS011;60446;50.752;4.352;2023-03-23T00:22:30;9.07;;;2.70;;
72439;SDS011;60446;50.752;4.352;2023-03-23T00:25:03;8.13;;;2.63;;
72439;SDS011;60446;50.752;4.352;2023-03-23T00:27:34;10.70;;;3.10;;
72439;SDS011;60446;50.752;4.352;2023-03-23T00:30:00;8.27;;;2.80;;
72439;SDS011;60446;50.752;4.352;2023-03-23T00:32:26;8.18;;;3.17;;
72439;SDS011;60446;50.752;4.352;2023-03-23T00:34:57;10.95;;;2.83;;
72439;SDS011;60446;50.752;4.352;2023-03-23T00:37:29;8.45;;;2.40;;
72439;SDS011;60446;50.752;4.352;2023-03-23T00:39:55;10.20;;;2.83;;
72439;SDS011;60446;50.752;4.352;2023-03-23T00:42:22;6.95;;;2.60;;
72439;SDS011;60446;50.752;4.352;2023-03-23T00:44:50;6.47;;;2.30;;
72439;SDS011;60446;50.752;4.352;2023-03-23T00:47:16;9.45;;;3.17;;
72439;SDS011;60446;50.752;4.352;2023-03-23T00:49:42;7.15;;;2.47;;
72439;SDS011;60446;50.752;4.352;2023-03-23T00:52:08;7.30;;;2.73;;
72439;SDS011;60446;50.752;4.352;2023-03-23T00:54:35;7.70;;;2.45;;
72439;SDS011;60446;50.752;4.352;2023-03-23T00:57:03;9.10;;;2.72;;
72439;SDS011;60446;50.752;4.352;2023-03-23T00:59:31;7.90;;;2.75;;
72439;SDS011;60446;50.752;4.352;2023-03-23T01:01:57;7.80;;;2.35;;
72439;SDS011;60446;50.752;4.352;2023-03-23T01:04:23;8.70;;;2.73;;
72439;SDS011;60446;50.752;4.352;2023-03-23T01:06:50;8.68;;;2.83;;
72439;SDS011;60446;50.752;4.352;2023-03-23T01:09:17;10.50;;;3.08;;
72439;SDS011;60446;50.752;4.352;2023-03-23T01:11:47;8.75;;;2.75;;
72439;SDS011;60446;50.752;4.352;2023-03-23T01:14:16;8.70;;;3.10;;
72439;SDS011;60446;50.752;4.352;2023-03-23T01:16:44;7.83;;;2.80;;
72439;SDS011;60446;50.752;4.352;2023-03-23T01:19:10;7.45;;;2.90;;
72439;SDS011;60446;50.752;4.352;2023-03-23T01:21:36;8.20;;;3.08;;
72439;SDS011;60446;50.752;4.352;2023-03-23T01:24:03;7.43;;;3.10;;
72439;SDS011;60446;50.752;4.352;2023-03-23T01:26:29;10.95;;;2.83;;
72439;SDS011;60446;50.752;4.352;2023-03-23T01:28:56;6.97;;;2.50;;
72439;SDS011;60446;50.752;4.352;2023-03-23T01:31:23;8.30;;;2.78;;
72439;SDS011;60446;50.752;4.352;2023-03-23T01:33:51;9.77;;;3.10;;
72439;SDS011;60446;50.752;4.352;2023-03-23T01:36:21;7.35;;;2.47;;
72439;SDS011;60446;50.752;4.352;2023-03-23T01:39:01;7.95;;;2.47;;
72439;SDS011;60446;50.752;4.352;2023-03-23T01:41:31;7.37;;;2.20;;
72439;SDS011;60446;50.752;4.352;2023-03-23T01:44:05;6.57;;;2.20;;
72439;SDS011;60446;50.752;4.352;2023-03-23T01:46:57;5.78;;;2.42;;
72439;SDS011;60446;50.752;4.352;2023-03-23T01:49:24;7.75;;;2.67;;
72439;SDS011;60446;50.752;4.352;2023-03-23T01:51:57;5.78;;;2.20;;
72439;SDS011;60446;50.752;4.352;2023-03-23T01:54:28;9.37;;;2.50;;
72439;SDS011;60446;50.752;4.352;2023-03-23T01:57:01;9.88;;;2.58;;
72439;SDS011;60446;50.752;4.352;2023-03-23T01:59:34;6.95;;;2.60;;
72439;SDS011;60446;50.752;4.352;2023-03-23T02:02:14;7.72;;;2.45;;
72439;SDS011;60446;50.752;4.352;2023-03-23T02:04:41;7.00;;;2.35;;
72439;SDS011;60446;50.752;4.352;2023-03-23T02:07:08;8.13;;;2.60;;
72439;SDS011;60446;50.752;4.352;2023-03-23T02:09:37;7.55;;;2.45;;
72439;SDS011;60446;50.752;4.352;2023-03-23T02:12:04;6.63;;;2.05;;
72439;SDS011;60446;50.752;4.352;2023-03-23T02:14:31;7.68;;;1.98;;
72439;SDS011;60446;50.752;4.352;2023-03-23T02:17:03;7.13;;;2.28;;
72439;SDS011;60446;50.752;4.352;2023-03-23T02:25:28;8.00;;;1.80;;
72439;SDS011;60446;50.752;4.352;2023-03-23T02:37:03;5.70;;;1.55;;
72439;SDS011;60446;50.752;4.352;2023-03-23T02:39:40;7.20;;;1.83;;
72439;SDS011;60446;50.752;4.352;2023-03-23T02:42:15;4.55;;;1.52;;
72439;SDS011;60446;50.752;4.352;2023-03-23T02:44:46;6.60;;;1.65;;
72439;SDS011;60446;50.752;4.352;2023-03-23T02:47:25;6.17;;;1.47;;
72439;SDS011;60446;50.752;4.352;2023-03-23T02:49:53;3.88;;;1.10;;
72439;SDS011;60446;50.752;4.352;2023-03-23T02:52:29;5.28;;;1.38;;
72439;SDS011;60446;50.752;4.352;2023-03-23T02:54:57;5.65;;;1.35;;
72439;SDS011;60446;50.752;4.352;2023-03-23T02:57:25;4.32;;;1.35;;
72439;SDS011;60446;50.752;4.352;2023-03-23T02:59:55;4.53;;;1.33;;
72439;SDS011;60446;50.752;4.352;2023-03-23T03:02:34;3.97;;;1.00;;
72439;SDS011;60446;50.752;4.352;2023-03-23T03:19:14;5.40;;;1.20;;
72439;SDS011;60446;50.752;4.352;2023-03-23T03:21:54;3.88;;;0.93;;
72439;SDS011;60446;50.752;4.352;2023-03-23T03:24:32;6.07;;;1.10;;
72439;SDS011;60446;50.752;4.352;2023-03-23T03:26:58;4.70;;;0.87;;
72439;SDS011;60446;50.752;4.352;2023-03-23T03:29:34;3.88;;;1.00;;
72439;SDS011;60446;50.752;4.352;2023-03-23T03:32:06;7.10;;;1.20;;
72439;SDS011;60446;50.752;4.352;2023-03-23T03:34:37;5.13;;;1.27;;
72439;SDS011;60446;50.752;4.352;2023-03-23T03:37:05;4.45;;;1.20;;
72439;SDS011;60446;50.752;4.352;2023-03-23T03:39:36;6.37;;;1.67;;
72439;SDS011;60446;50.752;4.352;2023-03-23T03:42:05;5.47;;;1.67;;
72439;SDS011;60446;50.752;4.352;2023-03-23T03:44:32;5.05;;;1.55;;
72439;SDS011;60446;50.752;4.352;2023-03-23T03:47:00;5.93;;;1.52;;
72439;SDS011;60446;50.752;4.352;2023-03-23T03:49:26;4.75;;;1.80;;
72439;SDS011;60446;50.752;4.352;2023-03-23T03:51:53;7.00;;;1.20;;
72439;SDS011;60446;50.752;4.352;2023-03-23T03:54:27;6.50;;;1.20;;
72439;SDS011;60446;50.752;4.352;2023-03-23T03:56:53;6.00;;;1.35;;
72439;SDS011;60446;50.752;4.352;2023-03-23T03:59:41;3.42;;;0.77;;
72439;SDS011;60446;50.752;4.352;2023-03-23T04:02:25;4.75;;;1.33;;
72439;SDS011;60446;50.752;4.352;2023-03-23T04:04:52;6.87;;;0.87;;
72439;SDS011;60446;50.752;4.352;2023-03-23T04:07:19;5.50;;;0.85;;
72439;SDS011;60446;50.752;4.352;2023-03-23T04:09:47;5.13;;;0.95;;
72439;SDS011;60446;50.752;4.352;2023-03-23T04:12:17;7.13;;;0.73;;
72439;SDS011;60446;50.752;4.352;2023-03-23T04:14:55;3.65;;;0.60;;
72439;SDS011;60446;50.752;4.352;2023-03-23T04:17:26;7.00;;;1.13;;
72439;SDS011;60446;50.752;4.352;2023-03-23T04:19:53;5.78;;;0.73;;
72439;SDS011;60446;50.752;4.352;2023-03-23T04:22:24;6.03;;;0.77;;
72439;SDS011;60446;50.752;4.352;2023-03-23T04:24:57;5.63;;;0.90;;
72439;SDS011;60446;50.752;4.352;2023-03-23T04:27:31;5.07;;;0.98;;
72439;SDS011;60446;50.752;4.352;2023-03-23T04:30:00;5.50;;;0.80;;
72439;SDS011;60446;50.752;4.352;2023-03-23T04:32:44;5.68;;;1.00;;
72439;SDS011;60446;50.752;4.352;2023-03-23T04:35:16;6.00;;;1.30;;
72439;SDS011;60446;50.752;4.352;2023-03-23T04:38:12;9.18;;;1.10;;
72439;SDS011;60446;50.752;4.352;2023-03-23T04:40:42;6.93;;;0.90;;
72439;SDS011;60446;50.752;4.352;2023-03-23T04:43:24;13.07;;;0.97;;
72439;SDS011;60446;50.752;4.352;2023-03-23T04:46:10;4.95;;;0.77;;
72439;SDS011;60446;50.752;4.352;2023-03-23T04:48:37;4.18;;;0.70;;
72439;SDS011;60446;50.752;4.352;2023-03-23T04:51:17;4.65;;;0.90;;
72439;SDS011;60446;50.752;4.352;2023-03-23T04:53:45;7.68;;;0.82;;
72439;SDS011;60446;50.752;4.352;2023-03-23T04:56:12;3.50;;;0.80;;
72439;SDS011;60446;50.752;4.352;2023-03-23T04:58:42;6.15;;;0.85;;
72439;SDS011;60446;50.752;4.352;2023-03-23T05:01:30;3.58;;;0.90;;
72439;SDS011;60446;50.752;4.352;2023-03-23T05:04:19;4.88;;;1.33;;
72439;SDS011;60446;50.752;4.352;2023-03-23T05:07:01;5.75;;;1.08;;
72439;SDS011;60446;50.752;4.352;2023-03-23T05:09:31;5.20;;;0.80;;
72439;SDS011;60446;50.752;4.352;2023-03-23T05:11:57;3.40;;;0.90;;
72439;SDS011;60446;50.752;4.352;2023-03-23T05:14:29;4.20;;;1.00;;
72439;SDS011;60446;50.752;4.352;2023-03-23T05:17:03;5.82;;;0.73;;
72439;SDS011;60446;50.752;4.352;2023-03-23T05:19:29;5.45;;;0.95;;
72439;SDS011;60446;50.752;4.352;2023-03-23T05:21:59;4.50;;;0.87;;
72439;SDS011;60446;50.752;4.352;2023-03-23T05:24:34;3.47;;;0.95;;
72439;SDS011;60446;50.752;4.352;2023-03-23T05:27:02;5.97;;;1.08;;
72439;SDS011;60446;50.752;4.352;2023-03-23T05:29:32;5.90;;;0.80;;
72439;SDS011;60446;50.752;4.352;2023-03-23T05:32:00;4.47;;;1.10;;
72439;SDS011;60446;50.752;4.352;2023-03-23T05:34:27;4.73;;;0.73;;
72439;SDS011;60446;50.752;4.352;2023-03-23T05:36:56;5.55;;;0.90;;
72439;SDS011;60446;50.752;4.352;2023-03-23T05:39:55;3.75;;;0.98;;
72439;SDS011;60446;50.752;4.352;2023-03-23T05:42:24;4.63;;;0.80;;
72439;SDS011;60446;50.752;4.352;2023-03-23T05:45:12;5.78;;;1.05;;
72439;SDS011;60446;50.752;4.352;2023-03-23T05:47:40;9.37;;;0.90;;
72439;SDS011;60446;50.752;4.352;2023-03-23T05:50:14;3.55;;;0.90;;
72439;SDS011;60446;50.752;4.352;2023-03-23T05:52:41;6.18;;;1.10;;
72439;SDS011;60446;50.752;4.352;2023-03-23T05:55:10;3.38;;;0.77;;
72439;SDS011;60446;50.752;4.352;2023-03-23T05:57:38;5.43;;;0.95;;
72439;SDS011;60446;50.752;4.352;2023-03-23T06:00:12;7.57;;;1.10;;
72439;SDS011;60446;50.752;4.352;2023-03-23T06:02:40;4.45;;;1.20;;
72439;SDS011;60446;50.752;4.352;2023-03-23T06:05:16;4.30;;;1.17;;
72439;SDS011;60446;50.752;4.352;2023-03-23T06:07:47;6.90;;;1.45;;
72439;SDS011;60446;50.752;4.352;2023-03-23T06:10:14;5.88;;;1.23;;
72439;SDS011;60446;50.752;4.352;2023-03-23T06:12:44;6.63;;;0.90;;
72439;SDS011;60446;50.752;4.352;2023-03-23T06:15:10;4.32;;;1.30;;
72439;SDS011;60446;50.752;4.352;2023-03-23T06:17:57;6.57;;;1.17;;
72439;SDS011;60446;50.752;4.352;2023-03-23T06:20:38;4.38;;;1.20;;
72439;SDS011;60446;50.752;4.352;2023-03-23T06:23:38;8.05;;;2.03;;
72439;SDS011;60446;50.752;4.352;2023-03-23T06:26:05;8.27;;;1.40;;
72439;SDS011;60446;50.752;4.352;2023-03-23T06:28:34;5.05;;;1.00;;
72439;SDS011;60446;50.752;4.352;2023-03-23T06:31:01;4.95;;;1.42;;
72439;SDS011;60446;50.752;4.352;2023-03-23T06:33:33;7.75;;;1.27;;
72439;SDS011;60446;50.752;4.352;2023-03-23T06:36:35;8.85;;;1.48;;
72439;SDS011;60446;50.752;4.352;2023-03-23T06:39:12;5.03;;;1.23;;
72439;SDS011;60446;50.752;4.352;2023-03-23T06:41:57;7.05;;;0.90;;
72439;SDS011;60446;50.752;4.352;2023-03-23T06:44:27;4.45;;;1.20;;
72439;SDS011;60446;50.752;4.352;2023-03-23T06:46:54;4.95;;;1.33;;
72439;SDS011;60446;50.752;4.352;2023-03-23T06:49:25;6.32;;;1.25;;
72439;SDS011;60446;50.752;4.352;2023-03-23T06:52:11;6.77;;;0.80;;
72439;SDS011;60446;50.752;4.352;2023-03-23T06:54:38;4.88;;;1.30;;
72439;SDS011;60446;50.752;4.352;2023-03-23T06:57:05;5.53;;;0.98;;
72439;SDS011;60446;50.752;4.352;2023-03-23T06:59:31;7.13;;;1.15;;
72439;SDS011;60446;50.752;4.352;2023-03-23T07:01:58;5.43;;;1.20;;
72439;SDS011;60446;50.752;4.352;2023-03-23T07:04:24;4.30;;;1.40;;
72439;SDS011;60446;50.752;4.352;2023-03-23T07:07:01;4.70;;;1.00;;
72439;SDS011;60446;50.752;4.352;2023-03-23T07:09:29;7.43;;;1.42;;
72439;SDS011;60446;50.752;4.352;2023-03-23T07:11:55;5.53;;;1.05;;
72439;SDS011;60446;50.752;4.352;2023-03-23T07:14:29;5.53;;;1.10;;
72439;SDS011;60446;50.752;4.352;2023-03-23T07:16:55;4.43;;;0.97;;
72439;SDS011;60446;50.752;4.352;2023-03-23T07:19:22;5.65;;;1.30;;
72439;SDS011;60446;50.752;4.352;2023-03-23T07:21:48;4.90;;;1.38;;
72439;SDS011;60446;50.752;4.352;2023-03-23T07:24:15;6.47;;;1.33;;
72439;SDS011;60446;50.752;4.352;2023-03-23T07:27:11;7.88;;;1.35;;
72439;SDS011;60446;50.752;4.352;2023-03-23T07:29:39;5.63;;;1.23;;
72439;SDS011;60446;50.752;4.352;2023-03-23T07:32:11;5.63;;;1.20;;
72439;SDS011;60446;50.752;4.352;2023-03-23T07:34:38;5.97;;;1.50;;
72439;SDS011;60446;50.752;4.352;2023-03-23T07:37:23;4.05;;;0.90;;
72439;SDS011;60446;50.752;4.352;2023-03-23T07:39:50;6.07;;;1.20;;
72439;SDS011;60446;50.752;4.352;2023-03-23T07:42:17;5.13;;;1.07;;
72439;SDS011;60446;50.752;4.352;2023-03-23T07:44:50;4.80;;;1.20;;
72439;SDS011;60446;50.752;4.352;2023-03-23T07:47:16;6.63;;;1.00;;
72439;SDS011;60446;50.752;4.352;2023-03-23T07:49:45;6.55;;;0.77;;
72439;SDS011;60446;50.752;4.352;2023-03-23T07:52:21;4.50;;;0.70;;
72439;SDS011;60446;50.752;4.352;2023-03-23T07:54:49;5.37;;;1.33;;
72439;SDS011;60446;50.752;4.352;2023-03-23T07:57:37;5.15;;;0.68;;
72439;SDS011;60446;50.752;4.352;2023-03-23T08:00:04;4.82;;;1.02;;
72439;SDS011;60446;50.752;4.352;2023-03-23T08:02:41;1.90;;;0.60;;
72439;SDS011;60446;50.752;4.352;2023-03-23T08:05:26;2.92;;;0.80;;
72439;SDS011;60446;50.752;4.352;2023-03-23T08:08:22;1.53;;;0.47;;
72439;SDS011;60446;50.752;4.352;2023-03-23T08:11:15;3.53;;;0.40;;
72439;SDS011;60446;50.752;4.352;2023-03-23T08:13:44;4.25;;;0.63;;
72439;SDS011;60446;50.752;4.352;2023-03-23T08:16:31;3.65;;;0.55;;
72439;SDS011;60446;50.752;4.352;2023-03-23T08:19:07;5.70;;;0.45;;
72439;SDS011;60446;50.752;4.352;2023-03-23T08:21:46;1.90;;;0.40;;
72439;SDS011;60446;50.752;4.352;2023-03-23T08:24:42;4.72;;;0.40;;
72439;SDS011;60446;50.752;4.352;2023-03-23T08:27:25;2.85;;;0.40;;
72439;SDS011;60446;50.752;4.352;2023-03-23T08:30:18;3.53;;;0.50;;
72439;SDS011;60446;50.752;4.352;2023-03-23T08:33:08;4.57;;;0.50;;
72439;SDS011;60446;50.752;4.352;2023-03-23T08:35:56;1.47;;;0.30;;
72439;SDS011;60446;50.752;4.352;2023-03-23T08:38:44;2.53;;;0.45;;
72439;SDS011;60446;50.752;4.352;2023-03-23T08:41:28;3.53;;;0.60;;
72439;SDS011;60446;50.752;4.352;2023-03-23T08:44:13;4.45;;;0.60;;
72439;SDS011;60446;50.752;4.352;2023-03-23T08:46:58;3.67;;;0.55;;
72439;SDS011;60446;50.752;4.352;2023-03-23T08:49:34;5.53;;;0.60;;
72439;SDS011;60446;50.752;4.352;2023-03-23T08:52:28;2.53;;;0.40;;
72439;SDS011;60446;50.752;4.352;2023-03-23T08:55:13;3.30;;;0.70;;
72439;SDS011;60446;50.752;4.352;2023-03-23T08:58:09;5.43;;;0.50;;
72439;SDS011;60446;50.752;4.352;2023-03-23T09:00:52;2.17;;;0.50;;
72439;SDS011;60446;50.752;4.352;2023-03-23T09:03:27;1.83;;;0.40;;
72439;SDS011;60446;50.752;4.352;2023-03-23T09:06:01;3.20;;;0.50;;
72439;SDS011;60446;50.752;4.352;2023-03-23T09:08:50;2.88;;;0.50;;
72439;SDS011;60446;50.752;4.352;2023-03-23T09:11:17;3.78;;;0.73;;
72439;SDS011;60446;50.752;4.352;2023-03-23T09:13:43;2.97;;;0.55;;
72439;SDS011;60446;50.752;4.352;2023-03-23T09:16:09;4.37;;;0.53;;
72439;SDS011;60446;50.752;4.352;2023-03-23T09:18:35;3.15;;;0.60;;
72439;SDS011;60446;50.752;4.352;2023-03-23T09:21:02;6.05;;;0.80;;
72439;SDS011;60446;50.752;4.352;2023-03-23T09:23:29;3.10;;;0.63;;
72439;SDS011;60446;50.752;4.352;2023-03-23T09:25:56;3.55;;;0.70;;
72439;SDS011;60446;50.752;4.352;2023-03-23T09:28:22;3.07;;;0.73;;
72439;SDS011;60446;50.752;4.352;2023-03-23T09:30:48;4.40;;;0.80;;
72439;SDS011;60446;50.752;4.352;2023-03-23T09:33:16;3.00;;;0.70;;
72439;SDS011;60446;50.752;4.352;2023-03-23T09:35:42;3.17;;;0.60;;
72439;SDS011;60446;50.752;4.352;2023-03-23T09:38:09;2.90;;;0.80;;
72439;SDS011;60446;50.752;4.352;2023-03-23T09:46:00;5.82;;;1.10;;
72439;SDS011;60446;50.752;4.352;2023-03-23T09:48:54;4.03;;;0.75;;
72439;SDS011;60446;50.752;4.352;2023-03-23T09:54:05;4.40;;;1.00;;
72439;SDS011;60446;50.752;4.352;2023-03-23T09:56:51;5.63;;;1.10;;
72439;SDS011;60446;50.752;4.352;2023-03-23T10:04:52;5.20;;;1.25;;
72439;SDS011;60446;50.752;4.352;2023-03-23T10:07:24;4.57;;;1.20;;
72439;SDS011;60446;50.752;4.352;2023-03-23T10:09:53;7.43;;;1.90;;
72439;SDS011;60446;50.752;4.352;2023-03-23T10:15:45;7.38;;;1.50;;
72439;SDS011;60446;50.752;4.352;2023-03-23T10:18:17;5.38;;;1.38;;
72439;SDS011;60446;50.752;4.352;2023-03-23T10:21:02;6.10;;;1.27;;
72439;SDS011;60446;50.752;4.352;2023-03-23T10:28:56;5.50;;;1.17;;
72439;SDS011;60446;50.752;4.352;2023-03-23T10:31:37;5.20;;;1.27;;
72439;SDS011;60446;50.752;4.352;2023-03-23T10:37:22;5.05;;;1.25;;
72439;SDS011;60446;50.752;4.352;2023-03-23T10:39:54;5.82;;;1.27;;
72439;SDS011;60446;50.752;4.352;2023-03-23T10:44:56;6.03;;;1.00;;
72439;SDS011;60446;50.752;4.352;2023-03-23T10:47:38;8.23;;;1.43;;
72439;SDS011;60446;50.752;4.352;2023-03-23T10:50:12;6.82;;;1.40;;
72439;SDS011;60446;50.752;4.352;2023-03-23T10:52:43;8.70;;;1.70;;
72439;SDS011;60446;50.752;4.352;2023-03-23T10:55:14;7.45;;;1.40;;
72439;SDS011;60446;50.752;4.352;2023-03-23T10:57:44;4.63;;;1.30;;
72439;SDS011;60446;50.752;4.352;2023-03-23T11:00:25;6.87;;;1.47;;
72439;SDS011;60446;50.752;4.352;2023-03-23T11:03:03;5.97;;;1.60;;
72439;SDS011;60446;50.752;4.352;2023-03-23T11:05:50;8.45;;;1.70;;
72439;SDS011;60446;50.752;4.352;2023-03-23T11:08:20;6.82;;;1.67;;
72439;SDS011;60446;50.752;4.352;2023-03-23T11:10:56;8.27;;;1.40;;
72439;SDS011;60446;50.752;4.352;2023-03-23T11:13:37;3.63;;;1.10;;
72439;SDS011;60446;50.752;4.352;2023-03-23T11:16:09;6.50;;;1.35;;
72439;SDS011;60446;50.752;4.352;2023-03-23T11:18:48;6.95;;;1.45;;
72439;SDS011;60446;50.752;4.352;2023-03-23T11:21:14;4.80;;;1.23;;
72439;SDS011;60446;50.752;4.352;2023-03-23T11:23:51;5.55;;;1.45;;
72439;SDS011;60446;50.752;4.352;2023-03-23T11:26:32;4.67;;;1.27;;
72439;SDS011;60446;50.752;4.352;2023-03-23T11:29:11;8.18;;;1.38;;
72439;SDS011;60446;50.752;4.352;2023-03-23T11:31:54;7.45;;;1.42;;
72439;SDS011;60446;50.752;4.352;2023-03-23T11:34:33;5.70;;;1.13;;
72439;SDS011;60446;50.752;4.352;2023-03-23T11:37:31;6.35;;;1.10;;
72439;SDS011;60446;50.752;4.352;2023-03-23T11:39:59;4.93;;;0.90;;
72439;SDS011;60446;50.752;4.352;2023-03-23T11:48:26;6.80;;;1.00;;
72439;SDS011;60446;50.752;4.352;2023-03-23T11:53:53;5.07;;;0.80;;
72439;SDS011;60446;50.752;4.352;2023-03-23T11:56:52;5.20;;;0.93;;
72439;SDS011;60446;50.752;4.352;2023-03-23T11:59:27;4.88;;;0.90;;
72439;SDS011;60446;50.752;4.352;2023-03-23T12:10:55;5.57;;;1.02;;
72439;SDS011;60446;50.752;4.352;2023-03-23T12:22:55;6.60;;;1.00;;
72439;SDS011;60446;50.752;4.352;2023-03-23T12:34:26;6.97;;;1.20;;
72439;SDS011;60446;50.752;4.352;2023-03-23T12:48:33;6.72;;;1.20;;
72439;SDS011;60446;50.752;4.352;2023-03-23T12:54:10;6.35;;;1.17;;
72439;SDS011;60446;50.752;4.352;2023-03-23T12:57:11;6.53;;;1.73;;
72439;SDS011;60446;50.752;4.352;2023-03-23T13:02:22;6.43;;;1.30;;
72439;SDS011;60446;50.752;4.352;2023-03-23T13:08:31;5.82;;;1.50;;
72439;SDS011;60446;50.752;4.352;2023-03-23T13:11:03;8.63;;;1.60;;
72439;SDS011;60446;50.752;4.352;2023-03-23T13:13:55;7.50;;;1.40;;
72439;SDS011;60446;50.752;4.352;2023-03-23T13:16:42;5.65;;;1.10;;
72439;SDS011;60446;50.752;4.352;2023-03-23T13:22:39;5.05;;;1.27;;
72439;SDS011;60446;50.752;4.352;2023-03-23T13:25:16;6.80;;;1.20;;
72439;SDS011;60446;50.752;4.352;2023-03-23T13:28:01;8.02;;;1.08;;
72439;SDS011;60446;50.752;4.352;2023-03-23T13:30:28;5.53;;;1.58;;
72439;SDS011;60446;50.752;4.352;2023-03-23T13:33:02;5.50;;;0.87;;
72439;SDS011;60446;50.752;4.352;2023-03-23T13:35:35;4.85;;;1.20;;
72439;SDS011;60446;50.752;4.352;2023-03-23T13:38:11;6.00;;;1.13;;
72439;SDS011;60446;50.752;4.352;2023-03-23T13:40:49;6.45;;;0.80;;
72439;SDS011;60446;50.752;4.352;2023-03-23T13:43:30;8.20;;;1.52;;
72439;SDS011;60446;50.752;4.352;2023-03-23T13:46:09;5.97;;;1.47;;
72439;SDS011;60446;50.752;4.352;2023-03-23T13:48:50;6.53;;;0.90;;
72439;SDS011;60446;50.752;4.352;2023-03-23T13:54:46;6.22;;;1.17;;
72439;SDS011;60446;50.752;4.352;2023-03-23T13:57:21;5.43;;;1.08;;
72439;SDS011;60446;50.752;4.352;2023-03-23T14:00:22;6.73;;;1.23;;
72439;SDS011;60446;50.752;4.352;2023-03-23T14:10:59;6.30;;;1.20;;
72439;SDS011;60446;50.752;4.352;2023-03-23T14:13:50;8.33;;;1.20;;
72439;SDS011;60446;50.752;4.352;2023-03-23T14:16:31;8.52;;;1.45;;
72439;SDS011;60446;50.752;4.352;2023-03-23T14:19:04;6.60;;;1.58;;
72439;SDS011;60446;50.752;4.352;2023-03-23T14:21:55;8.07;;;1.60;;
72439;SDS011;60446;50.752;4.352;2023-03-23T14:24:27;6.40;;;1.70;;
72439;SDS011;60446;50.752;4.352;2023-03-23T14:27:10;10.40;;;1.43;;
72439;SDS011;60446;50.752;4.352;2023-03-23T14:29:42;9.68;;;1.92;;
72439;SDS011;60446;50.752;4.352;2023-03-23T14:32:12;7.90;;;1.63;;
72439;SDS011;60446;50.752;4.352;2023-03-23T14:34:43;10.80;;;1.35;;
72439;SDS011;60446;50.752;4.352;2023-03-23T14:37:13;5.20;;;0.85;;
72439;SDS011;60446;50.752;4.352;2023-03-23T14:39:44;7.57;;;1.30;;
72439;SDS011;60446;50.752;4.352;2023-03-23T14:42:16;4.78;;;1.00;;
72439;SDS011;60446;50.752;4.352;2023-03-23T14:44:54;7.30;;;1.20;;
72439;SDS011;60446;50.752;4.352;2023-03-23T14:47:29;7.07;;;0.90;;
72439;SDS011;60446;50.752;4.352;2023-03-23T14:52:57;5.60;;;1.03;;
72439;SDS011;60446;50.752;4.352;2023-03-23T14:55:49;5.43;;;1.13;;
72439;SDS011;60446;50.752;4.352;2023-03-23T14:58:19;6.68;;;1.38;;
72439;SDS011;60446;50.752;4.352;2023-03-23T15:00:58;7.60;;;1.35;;
72439;SDS011;60446;50.752;4.352;2023-03-23T15:03:40;4.15;;;0.90;;
72439;SDS011;60446;50.752;4.352;2023-03-23T15:06:12;5.60;;;0.93;;
72439;SDS011;60446;50.752;4.352;2023-03-23T15:08:42;5.50;;;1.10;;
72439;SDS011;60446;50.752;4.352;2023-03-23T15:13:50;8.27;;;1.30;;
72439;SDS011;60446;50.752;4.352;2023-03-23T15:16:23;7.95;;;1.15;;
72439;SDS011;60446;50.752;4.352;2023-03-23T15:19:13;6.87;;;1.33;;
72439;SDS011;60446;50.752;4.352;2023-03-23T15:21:47;6.22;;;1.05;;
72439;SDS011;60446;50.752;4.352;2023-03-23T15:24:23;7.60;;;1.35;;
72439;SDS011;60446;50.752;4.352;2023-03-23T15:27:03;7.00;;;1.20;;
72439;SDS011;60446;50.752;4.352;2023-03-23T15:29:53;6.30;;;1.60;;
72439;SDS011;60446;50.752;4.352;2023-03-23T15:32:23;10.43;;;1.23;;
72439;SDS011;60446;50.752;4.352;2023-03-23T15:34:53;10.38;;;1.77;;
72439;SDS011;60446;50.752;4.352;2023-03-23T15:37:21;8.73;;;1.45;;
72439;SDS011;60446;50.752;4.352;2023-03-23T15:39:53;6.05;;;1.15;;
72439;SDS011;60446;50.752;4.352;2023-03-23T15:44:58;7.77;;;1.10;;
72439;SDS011;60446;50.752;4.352;2023-03-23T15:50:10;5.72;;;1.30;;
72439;SDS011;60446;50.752;4.352;2023-03-23T15:52:39;7.47;;;1.42;;
72439;SDS011;60446;50.752;4.352;2023-03-23T15:58:08;7.90;;;1.33;;
72439;SDS011;60446;50.752;4.352;2023-03-23T16:00:40;10.10;;;1.90;;
72439;SDS011;60446;50.752;4.352;2023-03-23T16:03:11;9.00;;;2.03;;
72439;SDS011;60446;50.752;4.352;2023-03-23T16:05:45;7.68;;;1.50;;
72439;SDS011;60446;50.752;4.352;2023-03-23T16:08:12;8.57;;;1.52;;
72439;SDS011;60446;50.752;4.352;2023-03-23T16:10:41;7.17;;;1.80;;
72439;SDS011;60446;50.752;4.352;2023-03-23T16:13:09;7.10;;;1.70;;
72439;SDS011;60446;50.752;4.352;2023-03-23T16:15:36;7.25;;;1.98;;
72439;SDS011;60446;50.752;4.352;2023-03-23T16:18:04;8.18;;;1.45;;
72439;SDS011;60446;50.752;4.352;2023-03-23T16:20:31;11.00;;;1.75;;
72439;SDS011;60446;50.752;4.352;2023-03-23T16:22:58;7.20;;;1.43;;
72439;SDS011;60446;50.752;4.352;2023-03-23T16:25:26;8.88;;;1.00;;
72439;SDS011;60446;50.752;4.352;2023-03-23T16:27:53;6.05;;;1.30;;
72439;SDS011;60446;50.752;4.352;2023-03-23T16:30:21;7.07;;;1.25;;
72439;SDS011;60446;50.752;4.352;2023-03-23T16:32:52;9.23;;;1.58;;
72439;SDS011;60446;50.752;4.352;2023-03-23T16:35:23;6.37;;;1.37;;
72439;SDS011;60446;50.752;4.352;2023-03-23T16:37:51;7.53;;;1.15;;
72439;SDS011;60446;50.752;4.352;2023-03-23T16:40:34;6.28;;;1.08;;
72439;SDS011;60446;50.752;4.352;2023-03-23T16:43:03;7.47;;;1.42;;
72439;SDS011;60446;50.752;4.352;2023-03-23T16:45:35;8.98;;;1.20;;
72439;SDS011;60446;50.752;4.352;2023-03-23T16:48:05;7.20;;;1.50;;
72439;SDS011;60446;50.752;4.352;2023-03-23T16:50:34;8.50;;;1.40;;
72439;SDS011;60446;50.752;4.352;2023-03-23T16:53:02;7.90;;;1.20;;
72439;SDS011;60446;50.752;4.352;2023-03-23T16:55:31;8.43;;;1.35;;
72439;SDS011;60446;50.752;4.352;2023-03-23T16:57:59;10.18;;;1.33;;
72439;SDS011;60446;50.752;4.352;2023-03-23T17:00:42;5.50;;;1.20;;
72439;SDS011;60446;50.752;4.352;2023-03-23T17:03:13;6.88;;;1.40;;
72439;SDS011;60446;50.752;4.352;2023-03-23T17:05:42;5.88;;;1.50;;
72439;SDS011;60446;50.752;4.352;2023-03-23T17:08:10;7.50;;;1.40;;
72439;SDS011;60446;50.752;4.352;2023-03-23T17:10:38;7.55;;;1.23;;
72439;SDS011;60446;50.752;4.352;2023-03-23T17:13:06;8.67;;;1.27;;
72439;SDS011;60446;50.752;4.352;2023-03-23T17:15:38;7.13;;;1.65;;
72439;SDS011;60446;50.752;4.352;2023-03-23T17:18:12;8.30;;;1.50;;
72439;SDS011;60446;50.752;4.352;2023-03-23T17:20:39;10.30;;;1.27;;
72439;SDS011;60446;50.752;4.352;2023-03-23T17:23:06;5.85;;;1.23;;
72439;SDS011;60446;50.752;4.352;2023-03-23T17:25:34;5.93;;;1.27;;
72439;SDS011;60446;50.752;4.352;2023-03-23T17:28:01;11.77;;;1.63;;
72439;SDS011;60446;50.752;4.352;2023-03-23T17:30:32;10.98;;;1.92;;
72439;SDS011;60446;50.752;4.352;2023-03-23T17:33:00;8.32;;;1.20;;
72439;SDS011;60446;50.752;4.352;2023-03-23T17:35:28;8.95;;;1.75;;
72439;SDS011;60446;50.752;4.352;2023-03-23T17:37:55;7.63;;;0.93;;
72439;SDS011;60446;50.752;4.352;2023-03-23T17:40:23;13.63;;;1.20;;
72439;SDS011;60446;50.752;4.352;2023-03-23T17:42:50;8.02;;;1.58;;
72439;SDS011;60446;50.752;4.352;2023-03-23T17:45:17;9.45;;;1.40;;
72439;SDS011;60446;50.752;4.352;2023-03-23T17:47:44;5.97;;;1.45;;